Time;durP1;ratioP1;P1;durP2;ratioP2;P2;SDS_P1;SDS_P2;PMS_P1;PMS_P2;Temp;Humidity;BMP_temperature;BMP_pressure;BME280_temperature;BME280_humidity;BME280_pressure;Samples;Min_cycle;Max_cycle;Signal;HPM_P1;HPM_P2
2022/06/20 05:00:52;;;;;;;15.57;11.83;;;24.20;97.20;;;;;;1721726;28;20740;-74
2022/06/20 05:01:44;;;;;;;14.00;11.13;;;24.20;97.20;;;;;;1721733;28;20212;-74
2022/06/20 05:02:36;;;;;;;11.97;10.47;;;24.20;97.20;;;;;;1721744;28;20440;-74
2022/06/20 05:03:34;;;;;;;14.87;10.23;;;24.20;97.20;;;;;;1721686;28;20460;-74
2022/06/20 05:04:32;;;;;;;11.90;10.30;;;24.20;97.20;;;;;;1721691;28;20444;-74
2022/06/20 05:05:26;;;;;;;13.37;10.57;;;24.30;97.20;;;;;;1721777;28;20483;-74
2022/06/20 05:06:21;;;;;;;13.43;10.50;;;24.30;97.20;;;;;;1721630;28;20443;-74
2022/06/20 05:07:18;;;;;;;12.70;10.17;;;24.30;97.20;;;;;;1721459;28;20440;-74
2022/06/20 05:08:14;;;;;;;13.43;11.77;;;24.30;97.20;;;;;;1721660;28;20452;-74
2022/06/20 05:09:10;;;;;;;11.73;10.60;;;24.30;97.20;;;;;;1721718;28;20448;-74
2022/06/20 05:10:09;;;;;;;17.80;10.80;;;24.30;97.20;;;;;;1721638;28;20433;-74
2022/06/20 05:11:04;;;;;;;12.30;11.10;;;24.30;97.20;;;;;;1720788;28;20193;-74
2022/06/20 05:12:05;;;;;;;11.60;10.40;;;24.30;97.20;;;;;;1721852;28;20433;-74
2022/06/20 05:13:00;;;;;;;11.93;10.77;;;24.30;97.20;;;;;;1714999;28;20440;-74
2022/06/20 05:13:59;;;;;;;14.80;11.00;;;24.30;97.20;;;;;;1714973;28;20443;-74
2022/06/20 05:14:58;;;;;;;12.07;10.87;;;24.30;97.20;;;;;;1714962;28;20449;-74
2022/06/20 05:15:53;;;;;;;14.07;10.27;;;24.40;97.20;;;;;;1714948;28;20429;-74
2022/06/20 05:16:48;;;;;;;12.20;10.60;;;24.40;97.20;;;;;;1714620;28;20699;-74
2022/06/20 05:17:43;;;;;;;11.50;10.37;;;24.40;97.20;;;;;;1714891;28;20451;-74
2022/06/20 05:18:39;;;;;;;12.80;11.10;;;24.30;97.20;;;;;;1714790;28;20456;-74
2022/06/20 05:19:35;;;;;;;11.60;10.50;;;24.40;97.20;;;;;;1714947;28;20955;-74
2022/06/20 05:20:30;;;;;;;17.90;11.37;;;24.30;97.20;;;;;;1714937;28;20456;-74
2022/06/20 05:21:26;;;;;;;12.47;10.73;;;24.30;97.20;;;;;;1714784;28;20864;-74
2022/06/20 05:22:22;;;;;;;13.77;11.45;;;24.30;97.20;;;;;;1714918;28;20453;-73
2022/06/20 05:23:17;;;;;;;12.00;10.23;;;24.30;97.20;;;;;;1714998;28;20200;-74
2022/06/20 05:24:12;;;;;;;12.60;10.53;;;24.30;97.20;;;;;;1714888;28;20468;-74
2022/06/20 05:25:08;;;;;;;13.65;10.88;;;24.30;97.20;;;;;;1714966;28;20437;-74
2022/06/20 05:26:00;;;;;;;14.67;11.90;;;24.30;97.20;;;;;;1714852;28;20680;-74
2022/06/20 05:26:54;;;;;;;13.40;11.05;;;24.30;97.20;;;;;;1715691;28;20445;-74
2022/06/20 05:27:49;;;;;;;12.10;10.70;;;24.40;97.20;;;;;;1714926;28;20559;-74
2022/06/20 05:28:41;;;;;;;16.80;11.20;;;24.40;97.20;;;;;;1714824;28;20512;-74
2022/06/20 05:29:35;;;;;;;14.10;10.33;;;24.40;97.20;;;;;;1714812;28;20464;-74
2022/06/20 05:30:31;;;;;;;13.77;10.33;;;24.40;97.20;;;;;;1717518;28;20808;-74
2022/06/20 05:31:29;;;;;;;13.73;11.13;;;24.40;97.20;;;;;;1721613;28;20987;-74
2022/06/20 05:32:25;;;;;;;15.37;10.97;;;24.40;97.20;;;;;;1721591;28;20875;-74
2022/06/20 05:33:25;;;;;;;12.77;10.63;;;24.30;97.20;;;;;;1721559;28;20452;-74
2022/06/20 05:34:22;;;;;;;14.30;10.70;;;24.30;97.20;;;;;;1721593;28;20820;-74
2022/06/20 05:35:17;;;;;;;12.93;10.50;;;24.30;97.20;;;;;;1721555;28;20444;-74
2022/06/20 05:36:19;;;;;;;11.60;10.23;;;24.20;97.20;;;;;;1721490;28;20445;-74
2022/06/20 05:37:13;;;;;;;12.83;11.53;;;24.20;97.20;;;;;;1721319;28;20506;-74
2022/06/20 05:38:15;;;;;;;15.63;11.50;;;24.20;97.20;;;;;;1721479;28;21003;-73
2022/06/20 05:39:15;;;;;;;15.23;11.40;;;24.10;97.20;;;;;;1721664;28;20441;-74
2022/06/20 05:40:15;;;;;;;15.63;10.70;;;24.10;97.20;;;;;;1721519;28;20433;-73
2022/06/20 05:41:08;;;;;;;15.17;12.00;;;24.00;97.20;;;;;;1721582;28;20448;-74
2022/06/20 05:42:00;;;;;;;12.30;10.70;;;24.00;97.20;;;;;;1721418;28;20475;-74
2022/06/20 05:42:51;;;;;;;16.53;11.93;;;24.00;97.20;;;;;;1721728;28;20800;-74
2022/06/20 05:43:44;;;;;;;18.30;12.07;;;24.00;97.20;;;;;;1719757;28;20441;-75
2022/06/20 05:44:35;;;;;;;16.13;11.23;;;23.90;97.20;;;;;;1721402;28;20456;-75
2022/06/20 05:45:29;;;;;;;13.97;12.20;;;23.90;97.20;;;;;;1721514;28;20841;-75
2022/06/20 05:46:25;;;;;;;13.53;12.20;;;23.80;97.20;;;;;;1721448;28;20448;-75
2022/06/20 05:47:22;;;;;;;13.27;11.70;;;23.80;97.20;;;;;;1721226;28;20453;-75
2022/06/20 05:48:13;;;;;;;15.47;12.33;;;23.80;97.20;;;;;;1721416;28;20451;-76
2022/06/20 05:49:07;;;;;;;13.43;11.80;;;23.90;97.20;;;;;;1721425;28;20483;-76
2022/06/20 05:50:05;;;;;;;14.07;10.87;;;23.90;97.20;;;;;;1721430;28;20213;-75
2022/06/20 05:50:59;;;;;;;16.13;12.17;;;23.90;97.20;;;;;;1721549;28;20523;-76
2022/06/20 05:51:50;;;;;;;16.50;12.00;;;23.90;97.20;;;;;;1721553;28;20448;-76
2022/06/20 05:52:43;;;;;;;12.10;10.80;;;23.90;97.20;;;;;;1721436;28;20480;-76
2022/06/20 05:53:38;;;;;;;13.77;10.97;;;23.90;97.20;;;;;;1721431;28;20205;-75
2022/06/20 05:54:35;;;;;;;14.27;12.07;;;23.90;97.20;;;;;;1721244;28;20447;-76
2022/06/20 05:55:32;;;;;;;13.60;11.03;;;23.90;97.20;;;;;;1721450;28;20997;-76
2022/06/20 05:56:28;;;;;;;20.63;12.40;;;23.90;97.20;;;;;;1721436;28;20447;-76
2022/06/20 05:57:22;;;;;;;13.00;11.50;;;23.90;97.20;;;;;;1721187;28;20444;-75
2022/06/20 05:58:19;;;;;;;16.20;11.87;;;23.90;97.20;;;;;;1721333;28;20433;-75
2022/06/20 05:59:30;;;;;;;12.67;10.43;;;24.00;97.20;;;;;;1720753;28;20444;-75
2022/06/20 06:00:26;;;;;;;15.67;11.40;;;24.00;97.20;;;;;;1720544;28;20452;-76
2022/06/20 06:01:21;;;;;;;17.05;10.60;;;24.00;97.20;;;;;;1720350;28;20460;-75
2022/06/20 06:02:23;;;;;;;16.37;11.10;;;24.00;97.20;;;;;;1720764;28;20280;-76
2022/06/20 06:03:19;;;;;;;14.17;10.90;;;24.10;97.20;;;;;;1721066;28;20723;-75
2022/06/20 06:04:25;;;;;;;13.33;11.17;;;24.10;97.20;;;;;;1717875;28;20464;-75
2022/06/20 06:05:24;;;;;;;14.57;11.43;;;24.10;97.20;;;;;;1720453;28;20461;-76
2022/06/20 06:06:19;;;;;;;12.37;11.10;;;24.10;97.20;;;;;;1718346;28;20480;-76
2022/06/20 06:07:14;;;;;;;14.63;12.77;;;24.20;97.20;;;;;;1719304;28;20484;-76
2022/06/20 06:08:23;;;;;;;13.90;12.13;;;24.20;97.20;;;;;;1721061;28;20850;-75
2022/06/20 06:09:21;;;;;;;13.97;12.50;;;24.20;97.20;;;;;;1720928;28;20476;-76
2022/06/20 06:10:33;;;;;;;13.83;12.40;;;24.20;97.20;;;;;;1719718;28;20439;-76
2022/06/20 06:11:29;;;;;;;17.37;12.40;;;24.20;97.20;;;;;;1718870;28;20453;-76
2022/06/20 06:12:28;;;;;;;15.87;12.43;;;24.20;97.20;;;;;;1720040;28;20515;-76
2022/06/20 06:13:24;;;;;;;13.77;12.10;;;24.20;97.20;;;;;;1714435;28;20524;-75
2022/06/20 06:14:22;;;;;;;13.50;11.93;;;24.20;97.20;;;;;;1720869;28;20815;-76
2022/06/20 06:15:21;;;;;;;16.43;12.70;;;24.10;97.20;;;;;;1720604;28;20979;-75
2022/06/20 06:17:35;;;;;;;13.33;11.60;;;24.10;97.20;;;;;;1718582;28;20578;-76
2022/06/20 06:18:29;;;;;;;15.10;11.23;;;24.00;97.20;;;;;;1719970;28;20447;-76
2022/06/20 06:19:43;;;;;;;15.67;12.17;;;24.00;97.20;;;;;;1719455;28;20472;-76
2022/06/20 06:20:36;;;;;;;14.37;12.17;;;24.00;97.20;;;;;;1718364;28;20470;-76
2022/06/20 06:21:29;;;;;;;16.20;11.97;;;24.00;97.20;;;;;;1720529;28;20475;-76
2022/06/20 06:22:22;;;;;;;13.73;12.33;;;24.00;97.20;;;;;;1719521;28;20459;-76
2022/06/20 06:23:16;;;;;;;15.10;11.57;;;24.00;97.20;;;;;;1718714;28;21069;-75
2022/06/20 06:24:11;;;;;;;13.17;11.17;;;24.00;97.20;;;;;;1720513;28;20436;-76
2022/06/20 06:25:06;;;;;;;13.43;11.80;;;24.00;97.20;;;;;;1720444;28;20441;-76
2022/06/20 06:25:57;;;;;;;13.43;12.03;;;24.00;97.20;;;;;;1720428;28;20784;-75
2022/06/20 06:26:53;;;;;;;12.73;11.50;;;24.10;97.20;;;;;;1720297;28;20881;-76
2022/06/20 06:27:48;;;;;;;12.40;11.13;;;24.10;97.20;;;;;;1720613;28;20194;-75
2022/06/20 06:28:41;;;;;;;12.60;11.33;;;24.10;97.20;;;;;;1720436;28;20445;-76
2022/06/20 06:29:38;;;;;;;12.37;11.07;;;24.10;97.20;;;;;;1720513;28;20928;-76
2022/06/20 06:30:35;;;;;;;13.60;12.30;;;24.20;97.20;;;;;;1715851;28;20529;-76
2022/06/20 06:31:32;;;;;;;13.47;11.97;;;24.20;97.20;;;;;;1720363;28;20800;-75
2022/06/20 06:32:29;;;;;;;14.37;11.93;;;24.20;97.20;;;;;;1718441;28;20916;-75
2022/06/20 06:33:26;;;;;;;12.70;11.43;;;24.20;97.20;;;;;;1718758;28;20476;-75
2022/06/20 06:34:23;;;;;;;13.27;11.87;;;24.20;97.20;;;;;;1719163;28;20459;-76
2022/06/20 06:35:21;;;;;;;12.67;11.43;;;24.30;97.20;;;;;;1720554;28;20437;-75
2022/06/20 06:36:18;;;;;;;15.60;12.60;;;24.30;97.20;;;;;;1720318;28;20452;-75
2022/06/20 06:37:16;;;;;;;15.03;12.90;;;24.40;97.20;;;;;;1720215;28;20472;-76
2022/06/20 06:38:14;;;;;;;17.10;12.87;;;24.40;97.20;;;;;;1720485;28;20444;-75
2022/06/20 06:39:13;;;;;;;14.40;12.93;;;24.40;97.20;;;;;;1720484;28;20447;-75
2022/06/20 06:40:11;;;;;;;12.93;11.50;;;24.40;97.20;;;;;;1718396;28;20940;-76
2022/06/20 06:41:07;;;;;;;14.50;12.30;;;24.40;97.20;;;;;;1720549;28;20428;-75
2022/06/20 06:42:02;;;;;;;13.83;12.43;;;24.30;97.20;;;;;;1720172;28;20452;-75
2022/06/20 06:42:56;;;;;;;13.00;11.77;;;24.30;97.20;;;;;;1720189;28;20448;-76
2022/06/20 06:43:51;;;;;;;18.13;12.03;;;24.30;97.20;;;;;;1720368;28;20506;-76
2022/06/20 06:44:45;;;;;;;16.10;11.73;;;24.30;97.20;;;;;;1719361;28;20486;-75
2022/06/20 06:45:36;;;;;;;14.10;12.00;;;24.30;97.20;;;;;;1720336;28;20449;-75
2022/06/20 06:46:34;;;;;;;13.37;11.90;;;24.40;97.20;;;;;;1720307;28;20539;-75
2022/06/20 06:47:31;;;;;;;12.80;11.47;;;24.40;97.20;;;;;;1720691;28;20472;-76
2022/06/20 06:48:28;;;;;;;12.30;10.80;;;24.40;97.20;;;;;;1720565;28;20448;-76
2022/06/20 06:49:27;;;;;;;12.37;11.10;;;24.40;97.20;;;;;;1720680;28;20816;-76
2022/06/20 06:50:27;;;;;;;12.80;10.70;;;24.50;97.20;;;;;;1720730;28;20440;-75
2022/06/20 06:51:28;;;;;;;11.23;10.23;;;24.50;97.20;;;;;;1720821;28;20444;-75
2022/06/20 06:52:29;;;;;;;11.70;10.47;;;24.50;97.20;;;;;;1720680;28;20436;-75
2022/06/20 06:53:27;;;;;;;17.27;11.27;;;24.50;97.20;;;;;;1720644;28;20488;-76
2022/06/20 06:54:23;;;;;;;11.60;10.43;;;24.60;97.20;;;;;;1717109;28;20527;-76
2022/06/20 06:55:24;;;;;;;15.40;10.87;;;24.60;97.20;;;;;;1720734;28;20441;-75
2022/06/20 06:56:21;;;;;;;13.20;10.43;;;24.60;97.20;;;;;;1720669;28;20449;-76
2022/06/20 06:57:18;;;;;;;16.87;11.40;;;24.60;97.20;;;;;;1720383;28;20444;-75
2022/06/20 06:58:18;;;;;;;11.70;10.50;;;24.60;97.20;;;;;;1716476;28;20429;-76
2022/06/20 06:59:13;;;;;;;12.33;10.23;;;24.60;97.20;;;;;;1720638;28;20443;-75
2022/06/20 07:00:26;;;;;;;10.83;9.57;;;24.60;97.20;;;;;;1720743;28;20958;-75
2022/06/20 07:01:22;;;;;;;12.53;9.10;;;24.60;97.20;;;;;;1718151;28;20444;-75
2022/06/20 07:02:15;;;;;;;10.50;9.47;;;24.60;97.20;;;;;;1717628;28;20437;-75
2022/06/20 07:03:16;;;;;;;12.70;9.10;;;24.70;97.20;;;;;;1720589;28;20483;-75
2022/06/20 07:04:14;;;;;;;11.17;9.37;;;24.60;97.20;;;;;;1720284;28;20441;-76
2022/06/20 07:05:14;;;;;;;13.27;9.30;;;24.60;97.20;;;;;;1720621;28;20498;-76
2022/06/20 07:06:13;;;;;;;13.20;9.40;;;24.60;97.20;;;;;;1720556;28;20213;-75
2022/06/20 07:07:14;;;;;;;10.77;9.67;;;24.60;97.20;;;;;;1720416;28;20863;-75
2022/06/20 07:08:12;;;;;;;13.33;10.10;;;24.70;97.20;;;;;;1720541;28;20445;-76
2022/06/20 07:09:11;;;;;;;11.07;9.90;;;24.70;97.20;;;;;;1720582;28;20449;-75
2022/06/20 07:10:03;;;;;;;13.80;10.27;;;24.70;97.20;;;;;;1719163;28;20804;-76
2022/06/20 07:10:59;;;;;;;10.57;9.60;;;24.70;97.20;;;;;;1720453;28;20456;-75
2022/06/20 07:12:01;;;;;;;11.80;10.00;;;24.70;97.20;;;;;;1720591;28;20448;-75
2022/06/20 07:12:59;;;;;;;13.30;10.27;;;24.80;97.20;;;;;;1719949;28;20443;-75
2022/06/20 07:13:57;;;;;;;12.00;10.83;;;24.80;97.20;;;;;;1720508;28;20524;-75
2022/06/20 07:15:03;;;;;;;13.40;10.93;;;24.80;97.20;;;;;;1720478;28;20441;-75
2022/06/20 07:15:58;;;;;;;11.67;10.43;;;24.90;97.20;;;;;;1720597;28;20453;-74
2022/06/20 07:16:56;;;;;;;11.13;10.03;;;24.90;97.20;;;;;;1718692;28;20441;-75
2022/06/20 07:17:50;;;;;;;11.33;10.00;;;24.90;97.20;;;;;;1719571;28;20539;-75
2022/06/20 07:18:47;;;;;;;13.50;10.90;;;25.00;97.20;;;;;;1719127;28;20924;-74
2022/06/20 07:19:42;;;;;;;12.60;11.30;;;25.00;97.20;;;;;;1720570;28;20449;-75
2022/06/20 07:20:38;;;;;;;15.57;11.10;;;25.10;97.20;;;;;;1720381;28;20464;-74
2022/06/20 07:21:32;;;;;;;12.43;10.80;;;25.10;97.20;;;;;;1720229;28;21131;-75
2022/06/20 07:22:24;;;;;;;12.57;10.40;;;25.20;97.20;;;;;;1720001;28;20467;-72
2022/06/20 07:23:18;;;;;;;11.93;10.47;;;25.20;97.20;;;;;;1720143;28;20460;-74
2022/06/20 07:24:15;;;;;;;12.37;11.10;;;25.30;97.20;;;;;;1720329;28;20452;-73
2022/06/20 07:25:07;;;;;;;15.00;10.47;;;25.30;97.20;;;;;;1720440;28;20468;-73
2022/06/20 07:26:00;;;;;;;12.17;11.07;;;25.30;97.20;;;;;;1720287;28;20520;-72
2022/06/20 07:26:57;;;;;;;12.13;10.60;;;25.40;97.20;;;;;;1720193;28;20535;-72
2022/06/20 07:27:55;;;;;;;11.40;9.70;;;25.40;97.20;;;;;;1720489;28;20444;-72
2022/06/20 07:28:49;;;;;;;11.23;10.17;;;25.40;97.20;;;;;;1720334;28;20449;-72
2022/06/20 07:29:45;;;;;;;11.13;10.03;;;25.50;97.20;;;;;;1718065;28;20520;-72
2022/06/20 07:30:41;;;;;;;11.13;10.03;;;25.50;97.20;;;;;;1720308;28;20471;-72
2022/06/20 07:31:38;;;;;;;12.33;11.10;;;25.50;97.20;;;;;;1714959;28;20466;-72
2022/06/20 07:32:35;;;;;;;14.03;11.10;;;25.60;97.20;;;;;;1719826;28;20433;-73
2022/06/20 07:33:31;;;;;;;13.10;9.80;;;25.60;97.20;;;;;;1720242;28;20476;-72
2022/06/20 07:34:28;;;;;;;11.20;10.10;;;25.60;97.20;;;;;;1720452;28;20456;-72
2022/06/20 07:35:24;;;;;;;12.60;10.50;;;25.70;97.20;;;;;;1718532;28;20452;-72
2022/06/20 07:36:20;;;;;;;11.37;10.17;;;25.70;97.20;;;;;;1718744;28;20978;-72
2022/06/20 07:37:15;;;;;;;11.83;9.50;;;25.80;97.20;;;;;;1718514;28;20441;-72
2022/06/20 07:38:10;;;;;;;11.23;10.00;;;25.80;97.20;;;;;;1717605;28;20832;-72
2022/06/20 07:39:05;;;;;;;12.13;10.87;;;25.80;97.20;;;;;;1718448;28;20448;-72
2022/06/20 07:40:00;;;;;;;10.60;9.60;;;25.90;97.20;;;;;;1720101;28;20445;-72
2022/06/20 07:40:57;;;;;;;11.10;9.77;;;25.90;97.20;;;;;;1720126;28;20810;-72
2022/06/20 07:41:52;;;;;;;12.20;10.07;;;25.90;97.20;;;;;;1720291;28;20442;-72
2022/06/20 07:42:50;;;;;;;13.77;10.60;;;26.00;97.20;;;;;;1720359;28;20435;-72
2022/06/20 07:43:49;;;;;;;10.70;9.60;;;26.00;97.20;;;;;;1717146;28;20441;-73
2022/06/20 07:44:43;;;;;;;12.97;10.50;;;26.00;97.20;;;;;;1715970;28;20453;-73
2022/06/20 07:45:38;;;;;;;10.47;9.40;;;26.10;97.20;;;;;;1719222;28;20560;-72
2022/06/20 07:46:34;;;;;;;10.77;9.60;;;26.10;97.20;;;;;;1717338;28;20440;-73
2022/06/20 07:47:31;;;;;;;10.77;9.70;;;26.10;97.20;;;;;;1713975;28;20457;-73
2022/06/20 07:48:29;;;;;;;11.90;10.00;;;26.10;97.20;;;;;;1718221;28;20448;-73
2022/06/20 07:49:27;;;;;;;11.10;9.80;;;26.10;97.20;;;;;;1713990;28;20469;-72
2022/06/20 07:50:22;;;;;;;10.80;9.80;;;26.20;97.20;;;;;;1713843;28;20456;-73
2022/06/20 07:51:18;;;;;;;12.00;9.97;;;26.20;97.20;;;;;;1713998;28;20469;-72
2022/06/20 07:52:27;;;;;;;11.53;10.33;;;26.20;97.20;;;;;;1714022;28;20828;-73
2022/06/20 07:53:21;;;;;;;11.07;9.60;;;26.30;97.20;;;;;;1713873;28;20847;-73
2022/06/20 07:54:17;;;;;;;13.43;10.07;;;26.30;97.20;;;;;;1713936;28;20463;-73
2022/06/20 07:55:13;;;;;;;11.37;9.97;;;26.30;97.20;;;;;;1719943;28;20454;-73
2022/06/20 07:56:10;;;;;;;13.30;9.87;;;26.30;97.20;;;;;;1720449;28;20431;-73
2022/06/20 07:57:05;;;;;;;12.57;9.47;;;26.30;97.20;;;;;;1717937;28;20576;-73
2022/06/20 07:58:06;;;;;;;11.33;9.20;;;26.30;97.20;;;;;;1716280;28;20445;-73
2022/06/20 07:59:03;;;;;;;10.73;9.63;;;26.40;97.20;;;;;;1718270;28;20480;-73
2022/06/20 08:00:03;;;;;;;9.83;8.80;;;26.40;97.20;;;;;;1719265;28;20457;-73
2022/06/20 08:00:56;;;;;;;9.87;8.37;;;26.40;97.20;;;;;;1717030;28;20844;-73
2022/06/20 08:01:54;;;;;;;11.87;9.20;;;26.40;97.20;;;;;;1717811;28;20472;-73
2022/06/20 08:02:50;;;;;;;14.77;9.57;;;26.40;97.20;;;;;;1716753;28;20441;-73
2022/06/20 08:03:48;;;;;;;13.20;9.00;;;26.50;97.20;;;;;;1718006;28;20428;-73
2022/06/20 08:04:45;;;;;;;12.20;9.87;;;26.50;97.20;;;;;;1720401;28;20963;-73
2022/06/20 08:05:40;;;;;;;10.40;9.50;;;26.50;97.20;;;;;;1720420;28;20452;-73
2022/06/20 08:06:36;;;;;;;10.00;8.93;;;26.60;97.20;;;;;;1720526;28;20821;-72
2022/06/20 08:07:34;;;;;;;9.90;8.63;;;26.60;97.20;;;;;;1719928;28;20467;-72
2022/06/20 08:08:32;;;;;;;9.47;8.57;;;26.60;97.20;;;;;;1713656;28;20522;-72
2022/06/20 08:09:30;;;;;;;9.50;8.50;;;26.70;97.20;;;;;;1718701;28;21009;-73
2022/06/20 08:10:29;;;;;;;9.43;8.50;;;26.70;97.20;;;;;;1720264;28;20958;-72
2022/06/20 08:11:41;;;;;;;11.57;9.03;;;26.70;97.20;;;;;;1720202;28;20452;-72
2022/06/20 08:12:39;;;;;;;11.33;8.70;;;26.70;97.20;;;;;;1720402;28;20486;-78
2022/06/20 08:13:36;;;;;;;10.00;8.73;;;26.70;97.20;;;;;;1719837;28;20820;-74
2022/06/20 08:14:36;;;;;;;10.77;8.27;;;26.80;97.20;;;;;;1719890;28;20472;-73
2022/06/20 08:15:32;;;;;;;8.10;7.40;;;26.80;97.20;;;;;;1720310;28;20476;-73
2022/06/20 08:16:27;;;;;;;9.70;8.00;;;26.80;97.20;;;;;;1720390;28;20444;-73
2022/06/20 08:17:18;;;;;;;9.60;8.63;;;26.80;97.20;;;;;;1720204;28;20793;-73
2022/06/20 08:18:12;;;;;;;9.73;8.73;;;26.80;97.20;;;;;;1716981;28;20528;-73
2022/06/20 08:19:02;;;;;;;9.40;7.60;;;26.90;97.20;;;;;;1713673;28;20464;-73
2022/06/20 08:19:56;;;;;;;9.60;8.30;;;26.90;97.20;;;;;;1713791;28;20445;-73
2022/06/20 08:20:53;;;;;;;8.60;7.80;;;26.90;97.20;;;;;;1713700;28;20605;-73
2022/06/20 08:21:48;;;;;;;11.93;8.50;;;26.90;97.20;;;;;;1713869;28;20520;-73
2022/06/20 08:22:47;;;;;;;9.90;7.70;;;26.90;97.20;;;;;;1718932;28;20455;-73
2022/06/20 08:23:45;;;;;;;7.43;6.63;;;26.90;97.20;;;;;;1720422;28;20825;-73
2022/06/20 08:24:40;;;;;;;9.40;8.57;;;27.00;97.20;;;;;;1721597;28;20460;-73
2022/06/20 08:25:37;;;;;;;8.90;8.00;;;27.00;97.20;;;;;;1721881;28;20436;-73
2022/06/20 08:26:32;;;;;;;8.27;7.50;;;27.00;97.20;;;;;;1721902;28;20440;-73
2022/06/20 08:27:31;;;;;;;8.13;7.30;;;27.00;97.20;;;;;;1721775;28;20448;-73
2022/06/20 08:28:27;;;;;;;10.67;7.83;;;27.00;97.20;;;;;;1721832;28;20451;-73
2022/06/20 08:29:26;;;;;;;12.17;7.30;;;27.00;97.20;;;;;;1721792;28;20523;-73
2022/06/20 08:30:25;;;;;;;9.47;7.40;;;27.10;97.20;;;;;;1721720;28;20982;-73
2022/06/20 08:31:23;;;;;;;10.50;7.43;;;27.10;97.20;;;;;;1721962;28;20900;-73
2022/06/20 08:32:20;;;;;;;8.63;7.40;;;27.10;97.20;;;;;;1721809;28;20852;-73
2022/06/20 08:33:16;;;;;;;9.60;8.27;;;27.10;97.20;;;;;;1721758;28;20455;-73
2022/06/20 08:34:16;;;;;;;12.70;8.00;;;27.20;97.20;;;;;;1721858;28;20885;-73
2022/06/20 08:35:16;;;;;;;9.23;8.00;;;27.20;97.20;;;;;;1721901;28;20853;-73
2022/06/20 08:36:16;;;;;;;8.07;7.27;;;27.20;97.20;;;;;;1721868;28;20436;-73
2022/06/20 08:37:12;;;;;;;7.73;6.93;;;27.20;97.20;;;;;;1721606;28;20435;-73
2022/06/20 08:38:10;;;;;;;8.77;6.83;;;27.30;97.20;;;;;;1721741;28;20448;-73
2022/06/20 08:39:07;;;;;;;10.40;7.57;;;27.30;97.20;;;;;;1717130;28;20456;-73
2022/06/20 08:40:10;;;;;;;7.97;7.17;;;27.30;97.20;;;;;;1716475;28;20469;-73
2022/06/20 08:41:15;;;;;;;7.43;6.60;;;27.30;97.20;;;;;;1721746;28;20822;-73
2022/06/20 08:42:33;;;;;;;9.53;7.17;;;27.30;97.20;;;;;;1721926;28;20467;-73
2022/06/20 08:43:46;;;;;;;10.40;7.30;;;27.40;97.20;;;;;;1700877;29;20455;-73
2022/06/20 08:44:57;;;;;;;10.47;7.40;;;27.40;97.20;;;;;;1721669;28;20432;-73
2022/06/20 08:46:05;;;;;;;10.43;7.77;;;27.40;97.20;;;;;;1721807;28;20438;-74
2022/06/20 08:47:29;;;;;;;8.60;6.87;;;27.50;97.20;;;;;;1721493;28;20825;-73
2022/06/20 08:48:52;;;;;;;7.67;7.00;;;27.50;97.20;;;;;;1721670;28;20514;-73
2022/06/20 08:50:04;;;;;;;10.33;8.07;;;27.50;97.20;;;;;;1721825;28;20963;-73
2022/06/20 08:51:31;;;;;;;9.80;8.40;;;27.60;97.20;;;;;;1721579;28;21002;-73
2022/06/20 08:52:51;;;;;;;7.00;6.33;;;27.60;97.20;;;;;;1721741;28;20448;-73
2022/06/20 08:54:14;;;;;;;8.73;7.40;;;27.70;97.20;;;;;;1721276;28;20452;-73
2022/06/20 08:55:36;;;;;;;10.07;7.87;;;27.80;97.20;;;;;;1720956;28;20455;-73
2022/06/20 08:56:41;;;;;;;10.60;7.60;;;27.80;97.20;;;;;;1714350;28;20449;-71
2022/06/20 08:57:43;;;;;;;9.90;7.87;;;27.80;97.20;;;;;;1714281;28;20452;-71
2022/06/20 08:58:49;;;;;;;9.43;7.80;;;27.90;97.20;;;;;;1720914;28;20510;-71
2022/06/20 09:00:05;;;;;;;8.13;7.13;;;27.90;97.20;;;;;;1721668;28;20932;-71
2022/06/20 09:01:04;;;;;;;17.73;7.33;;;27.90;97.20;;;;;;1721382;28;20534;-71
2022/06/20 09:02:09;;;;;;;8.00;7.20;;;28.00;97.20;;;;;;1721518;28;20440;-71
2022/06/20 09:03:28;;;;;;;7.40;6.70;;;28.00;97.20;;;;;;1721637;28;21079;-71
2022/06/20 09:04:39;;;;;;;10.23;7.07;;;28.00;97.20;;;;;;1721544;28;20467;-70
2022/06/20 09:05:48;;;;;;;13.40;7.27;;;28.10;97.20;;;;;;1721399;28;20455;-70
2022/06/20 09:07:08;;;;;;;8.13;7.20;;;28.10;97.20;;;;;;1720758;28;20452;-71
2022/06/20 09:08:24;;;;;;;9.60;7.07;;;28.10;97.20;;;;;;1721519;28;20440;-71
2022/06/20 09:09:56;;;;;;;10.13;7.30;;;28.10;97.20;;;;;;1721658;28;20444;-71
2022/06/20 09:11:00;;;;;;;10.70;7.13;;;28.20;97.20;;;;;;1721590;28;20460;-71
2022/06/20 09:12:09;;;;;;;9.30;7.47;;;28.20;97.20;;;;;;1721610;28;20440;-71
2022/06/20 09:13:24;;;;;;;8.03;7.27;;;28.20;97.20;;;;;;1720258;28;20448;-70
2022/06/20 09:14:31;;;;;;;9.30;7.40;;;28.30;97.20;;;;;;1717812;28;20484;-71
2022/06/20 09:15:34;;;;;;;8.50;7.03;;;28.30;97.20;;;;;;1721535;28;20459;-71
2022/06/20 09:16:37;;;;;;;14.90;7.37;;;28.40;97.20;;;;;;1721475;28;20838;-71
2022/06/20 09:17:38;;;;;;;9.70;7.60;;;28.30;97.20;;;;;;1721460;28;20456;-71
2022/06/20 09:18:44;;;;;;;16.10;8.47;;;28.40;97.20;;;;;;1721545;28;20449;-71
2022/06/20 09:19:54;;;;;;;8.77;6.97;;;28.40;97.20;;;;;;1721688;28;20451;-71
2022/06/20 09:20:51;;;;;;;9.90;7.30;;;28.40;97.20;;;;;;1721479;28;20487;-70
2022/06/20 09:21:52;;;;;;;8.53;7.20;;;28.40;97.20;;;;;;1721573;28;21002;-70
2022/06/20 09:23:00;;;;;;;7.57;6.77;;;28.40;97.20;;;;;;1721638;28;20445;-71
2022/06/20 09:24:03;;;;;;;8.10;7.30;;;28.50;97.20;;;;;;1721538;28;20471;-71
2022/06/20 09:25:06;;;;;;;11.60;7.63;;;28.50;97.20;;;;;;1721629;28;20441;-70
2022/06/20 09:26:04;;;;;;;10.70;7.70;;;28.50;97.20;;;;;;1721450;28;20527;-71
2022/06/20 09:27:07;;;;;;;8.20;7.30;;;28.50;97.20;;;;;;1721232;28;20440;-71
2022/06/20 09:28:15;;;;;;;8.27;7.47;;;28.60;97.20;;;;;;1721374;28;20491;-71
2022/06/20 09:29:29;;;;;;;8.10;6.90;;;28.60;97.20;;;;;;1718223;28;20453;-71
2022/06/20 09:30:31;;;;;;;10.97;8.50;;;28.60;97.20;;;;;;1721496;28;20498;-70
2022/06/20 09:31:47;;;;;;;9.20;7.57;;;28.60;97.20;;;;;;1721529;28;20444;-71
2022/06/20 09:33:25;;;;;;;8.50;7.33;;;28.50;97.20;;;;;;1721554;28;20436;-71
2022/06/20 09:34:56;;;;;;;10.27;7.60;;;28.50;97.20;;;;;;1721366;28;20554;-71
2022/06/20 09:36:21;;;;;;;12.27;7.40;;;28.40;97.20;;;;;;1721003;28;20452;-71
2022/06/20 09:37:32;;;;;;;8.83;7.00;;;28.40;97.20;;;;;;1721186;28;20441;-71
2022/06/20 09:38:42;;;;;;;9.77;7.10;;;28.40;97.20;;;;;;1721452;28;20444;-71
2022/06/20 09:39:48;;;;;;;9.53;8.13;;;28.40;97.20;;;;;;1721464;28;20437;-71
2022/06/20 09:40:44;;;;;;;11.40;8.20;;;28.30;97.20;;;;;;1721278;28;20460;-71
2022/06/20 09:41:43;;;;;;;8.83;7.10;;;28.30;97.20;;;;;;1721474;28;20432;-71
2022/06/20 09:42:39;;;;;;;7.33;6.70;;;28.30;97.20;;;;;;1721484;28;20487;-71
2022/06/20 09:43:42;;;;;;;8.87;7.13;;;28.30;97.20;;;;;;1721530;28;20441;-71
2022/06/20 09:44:46;;;;;;;8.27;7.47;;;28.30;97.20;;;;;;1721469;28;20444;-71
2022/06/20 09:45:45;;;;;;;9.20;7.33;;;28.30;97.20;;;;;;1719726;28;20445;-71
2022/06/20 09:46:44;;;;;;;8.50;7.80;;;28.30;97.20;;;;;;1721075;28;20456;-71
2022/06/20 09:47:44;;;;;;;8.53;7.37;;;28.30;97.20;;;;;;1721414;28;20444;-71
2022/06/20 09:48:39;;;;;;;8.00;7.20;;;28.30;97.20;;;;;;1721303;28;20460;-71
2022/06/20 09:49:40;;;;;;;9.83;6.97;;;28.30;97.20;;;;;;1721442;28;20451;-71
2022/06/20 09:50:40;;;;;;;7.90;6.93;;;28.40;97.20;;;;;;1721377;28;20838;-71
2022/06/20 09:51:42;;;;;;;12.73;8.10;;;28.40;97.20;;;;;;1721439;28;20535;-71
2022/06/20 09:52:41;;;;;;;8.40;7.70;;;28.40;97.20;;;;;;1721382;28;20444;-71
2022/06/20 09:53:45;;;;;;;8.43;7.60;;;28.40;97.20;;;;;;1721350;28;20449;-71
2022/06/20 09:54:49;;;;;;;7.70;6.90;;;28.50;97.20;;;;;;1721362;28;20479;-71
2022/06/20 09:55:50;;;;;;;9.53;6.83;;;28.50;97.20;;;;;;1721367;28;20455;-71
2022/06/20 09:56:50;;;;;;;8.47;6.53;;;28.50;97.20;;;;;;1721117;28;20944;-71
2022/06/20 09:57:51;;;;;;;10.00;7.33;;;28.50;97.20;;;;;;1721322;28;20535;-71
2022/06/20 09:59:02;;;;;;;8.33;6.60;;;28.50;97.20;;;;;;1721357;28;20452;-71
2022/06/20 10:00:01;;;;;;;8.00;7.20;;;28.50;97.20;;;;;;1721324;28;20448;-71
2022/06/20 10:00:58;;;;;;;8.47;7.10;;;28.50;97.20;;;;;;1721132;28;20487;-71
2022/06/20 10:02:02;;;;;;;7.77;6.70;;;28.40;97.20;;;;;;1719645;28;20455;-71
2022/06/20 10:02:58;;;;;;;10.87;7.43;;;28.40;97.20;;;;;;1721397;28;20448;-71
2022/06/20 10:03:57;;;;;;;7.93;6.80;;;28.40;97.20;;;;;;1721368;28;20932;-71
2022/06/20 10:04:56;;;;;;;6.87;6.20;;;28.40;97.20;;;;;;1721393;28;20448;-71
2022/06/20 10:05:54;;;;;;;9.10;7.20;;;28.40;97.20;;;;;;1721304;28;20443;-71